sensor_id;sensor_type;location;lat;lon;timestamp;temperature;humidity
53268;DHT22;39156;51.176;6.738;2024-03-02T00:01:27;7.60;72.90
53268;DHT22;39156;51.176;6.738;2024-03-02T00:03:54;7.60;73.80
53268;DHT22;39156;51.176;6.738;2024-03-02T00:06:21;7.70;73.00
53268;DHT22;39156;51.176;6.738;2024-03-02T00:08:50;7.70;73.10
53268;DHT22;39156;51.176;6.738;2024-03-02T00:11:18;7.60;73.10
53268;DHT22;39156;51.176;6.738;2024-03-02T00:13:45;7.70;73.20
53268;DHT22;39156;51.176;6.738;2024-03-02T00:16:12;8.00;73.30
53268;DHT22;39156;51.176;6.738;2024-03-02T00:18:39;7.70;73.30
53268;DHT22;39156;51.176;6.738;2024-03-02T00:21:07;7.70;73.30
53268;DHT22;39156;51.176;6.738;2024-03-02T00:23:35;7.80;73.40
53268;DHT22;39156;51.176;6.738;2024-03-02T00:26:03;7.70;73.30
53268;DHT22;39156;51.176;6.738;2024-03-02T00:28:33;7.80;73.40
53268;DHT22;39156;51.176;6.738;2024-03-02T00:31:03;7.80;73.40
53268;DHT22;39156;51.176;6.738;2024-03-02T00:33:32;7.80;73.40
53268;DHT22;39156;51.176;6.738;2024-03-02T00:36:01;7.80;73.40
53268;DHT22;39156;51.176;6.738;2024-03-02T00:38:30;7.80;73.20
53268;DHT22;39156;51.176;6.738;2024-03-02T00:40:58;7.80;73.30
53268;DHT22;39156;51.176;6.738;2024-03-02T00:43:42;7.80;73.20
53268;DHT22;39156;51.176;6.738;2024-03-02T00:46:15;7.80;73.40
53268;DHT22;39156;51.176;6.738;2024-03-02T00:48:52;7.90;73.30
53268;DHT22;39156;51.176;6.738;2024-03-02T00:51:21;7.90;73.30
53268;DHT22;39156;51.176;6.738;2024-03-02T00:53:49;7.90;73.20
53268;DHT22;39156;51.176;6.738;2024-03-02T00:56:16;8.00;73.20
53268;DHT22;39156;51.176;6.738;2024-03-02T00:58:44;7.90;73.10
53268;DHT22;39156;51.176;6.738;2024-03-02T01:01:11;7.90;73.30
53268;DHT22;39156;51.176;6.738;2024-03-02T01:03:38;7.90;72.90
53268;DHT22;39156;51.176;6.738;2024-03-02T01:06:05;8.00;72.90
53268;DHT22;39156;51.176;6.738;2024-03-02T01:08:33;8.00;72.90
53268;DHT22;39156;51.176;6.738;2024-03-02T01:11:00;7.90;72.80
53268;DHT22;39156;51.176;6.738;2024-03-02T01:13:27;8.10;72.90
53268;DHT22;39156;51.176;6.738;2024-03-02T01:15:55;7.90;72.80
53268;DHT22;39156;51.176;6.738;2024-03-02T01:18:22;8.00;72.80
53268;DHT22;39156;51.176;6.738;2024-03-02T01:20:49;7.90;72.80
53268;DHT22;39156;51.176;6.738;2024-03-02T01:23:17;8.00;73.20
53268;DHT22;39156;51.176;6.738;2024-03-02T01:25:44;7.90;72.80
53268;DHT22;39156;51.176;6.738;2024-03-02T01:28:11;8.00;72.80
53268;DHT22;39156;51.176;6.738;2024-03-02T01:30:38;7.90;73.00
53268;DHT22;39156;51.176;6.738;2024-03-02T01:33:07;7.80;72.90
53268;DHT22;39156;51.176;6.738;2024-03-02T01:35:34;7.80;72.90
53268;DHT22;39156;51.176;6.738;2024-03-02T01:38:01;7.80;73.00
53268;DHT22;39156;51.176;6.738;2024-03-02T01:40:28;7.80;73.00
53268;DHT22;39156;51.176;6.738;2024-03-02T01:42:55;7.80;73.10
53268;DHT22;39156;51.176;6.738;2024-03-02T01:45:23;7.70;73.10
53268;DHT22;39156;51.176;6.738;2024-03-02T01:47:51;7.80;73.20
53268;DHT22;39156;51.176;6.738;2024-03-02T01:50:26;7.70;73.10
53268;DHT22;39156;51.176;6.738;2024-03-02T01:52:54;7.70;73.20
53268;DHT22;39156;51.176;6.738;2024-03-02T01:55:20;7.80;73.20
53268;DHT22;39156;51.176;6.738;2024-03-02T01:57:48;7.70;73.50
53268;DHT22;39156;51.176;6.738;2024-03-02T02:00:16;7.70;73.10
53268;DHT22;39156;51.176;6.738;2024-03-02T02:02:44;7.70;73.20
53268;DHT22;39156;51.176;6.738;2024-03-02T02:05:11;7.60;73.20
53268;DHT22;39156;51.176;6.738;2024-03-02T02:07:40;7.70;73.60
53268;DHT22;39156;51.176;6.738;2024-03-02T02:10:07;7.70;73.30
53268;DHT22;39156;51.176;6.738;2024-03-02T02:12:35;7.70;73.30
53268;DHT22;39156;51.176;6.738;2024-03-02T02:15:02;7.70;73.40
53268;DHT22;39156;51.176;6.738;2024-03-02T02:17:29;7.70;73.30
53268;DHT22;39156;51.176;6.738;2024-03-02T02:19:56;7.70;73.20
53268;DHT22;39156;51.176;6.738;2024-03-02T02:22:24;7.80;73.30
53268;DHT22;39156;51.176;6.738;2024-03-02T02:24:51;7.70;73.20
53268;DHT22;39156;51.176;6.738;2024-03-02T02:27:18;7.80;73.30
53268;DHT22;39156;51.176;6.738;2024-03-02T02:29:45;7.80;73.40
53268;DHT22;39156;51.176;6.738;2024-03-02T02:32:11;7.80;73.40
53268;DHT22;39156;51.176;6.738;2024-03-02T02:34:38;7.80;73.40
53268;DHT22;39156;51.176;6.738;2024-03-02T02:37:05;7.80;73.40
53268;DHT22;39156;51.176;6.738;2024-03-02T02:39:33;7.80;73.50
53268;DHT22;39156;51.176;6.738;2024-03-02T02:42:00;7.90;73.50
53268;DHT22;39156;51.176;6.738;2024-03-02T02:44:28;8.00;73.50
53268;DHT22;39156;51.176;6.738;2024-03-02T02:46:55;7.90;73.40
53268;DHT22;39156;51.176;6.738;2024-03-02T02:49:22;8.00;73.40
53268;DHT22;39156;51.176;6.738;2024-03-02T02:51:49;8.00;73.60
53268;DHT22;39156;51.176;6.738;2024-03-02T02:54:16;7.90;73.20
53268;DHT22;39156;51.176;6.738;2024-03-02T02:56:44;8.00;73.20
53268;DHT22;39156;51.176;6.738;2024-03-02T02:59:11;8.00;73.20
53268;DHT22;39156;51.176;6.738;2024-03-02T03:01:38;8.00;73.20
53268;DHT22;39156;51.176;6.738;2024-03-02T03:04:05;8.10;73.10
53268;DHT22;39156;51.176;6.738;2024-03-02T03:06:32;8.00;73.10
53268;DHT22;39156;51.176;6.738;2024-03-02T03:08:58;8.00;73.10
53268;DHT22;39156;51.176;6.738;2024-03-02T03:11:25;8.00;73.10
53268;DHT22;39156;51.176;6.738;2024-03-02T03:13:54;8.00;73.30
53268;DHT22;39156;51.176;6.738;2024-03-02T03:16:21;8.10;73.40
53268;DHT22;39156;51.176;6.738;2024-03-02T03:18:48;8.00;73.40
53268;DHT22;39156;51.176;6.738;2024-03-02T03:21:17;8.00;73.50
53268;DHT22;39156;51.176;6.738;2024-03-02T03:23:43;8.00;73.50
53268;DHT22;39156;51.176;6.738;2024-03-02T03:26:10;8.00;73.50
53268;DHT22;39156;51.176;6.738;2024-03-02T03:28:37;7.90;73.40
53268;DHT22;39156;51.176;6.738;2024-03-02T03:31:05;8.10;73.50
53268;DHT22;39156;51.176;6.738;2024-03-02T03:33:32;8.00;73.50
53268;DHT22;39156;51.176;6.738;2024-03-02T03:35:59;8.10;73.50
53268;DHT22;39156;51.176;6.738;2024-03-02T03:38:28;8.00;73.60
53268;DHT22;39156;51.176;6.738;2024-03-02T03:40:55;8.00;73.20
53268;DHT22;39156;51.176;6.738;2024-03-02T03:43:22;8.00;73.30
53268;DHT22;39156;51.176;6.738;2024-03-02T03:45:49;8.00;73.40
53268;DHT22;39156;51.176;6.738;2024-03-02T03:48:17;8.00;73.50
53268;DHT22;39156;51.176;6.738;2024-03-02T03:50:44;7.90;73.50
53268;DHT22;39156;51.176;6.738;2024-03-02T03:53:11;8.00;73.50
53268;DHT22;39156;51.176;6.738;2024-03-02T03:55:40;7.90;73.50
53268;DHT22;39156;51.176;6.738;2024-03-02T03:58:07;8.00;73.50
53268;DHT22;39156;51.176;6.738;2024-03-02T04:00:33;8.00;73.40
53268;DHT22;39156;51.176;6.738;2024-03-02T04:03:00;8.00;73.50
53268;DHT22;39156;51.176;6.738;2024-03-02T04:05:28;8.00;73.50
53268;DHT22;39156;51.176;6.738;2024-03-02T04:07:55;8.00;73.50
53268;DHT22;39156;51.176;6.738;2024-03-02T04:10:22;8.00;73.50
53268;DHT22;39156;51.176;6.738;2024-03-02T04:12:49;7.90;73.50
53268;DHT22;39156;51.176;6.738;2024-03-02T04:15:17;7.90;73.50
53268;DHT22;39156;51.176;6.738;2024-03-02T04:17:44;7.80;73.50
53268;DHT22;39156;51.176;6.738;2024-03-02T04:20:11;7.80;73.50
53268;DHT22;39156;51.176;6.738;2024-03-02T04:22:40;7.70;73.60
53268;DHT22;39156;51.176;6.738;2024-03-02T04:25:07;7.70;73.70
53268;DHT22;39156;51.176;6.738;2024-03-02T04:27:35;7.70;73.80
53268;DHT22;39156;51.176;6.738;2024-03-02T04:30:02;7.50;73.80
53268;DHT22;39156;51.176;6.738;2024-03-02T04:32:31;7.60;74.00
53268;DHT22;39156;51.176;6.738;2024-03-02T04:34:58;7.70;74.20
53268;DHT22;39156;51.176;6.738;2024-03-02T04:37:24;7.50;74.40
53268;DHT22;39156;51.176;6.738;2024-03-02T04:39:53;7.40;74.30
53268;DHT22;39156;51.176;6.738;2024-03-02T04:42:20;7.40;74.40
53268;DHT22;39156;51.176;6.738;2024-03-02T04:44:46;7.40;74.50
53268;DHT22;39156;51.176;6.738;2024-03-02T04:47:13;7.40;74.60
53268;DHT22;39156;51.176;6.738;2024-03-02T04:49:40;7.40;74.60
53268;DHT22;39156;51.176;6.738;2024-03-02T04:52:07;7.40;74.70
53268;DHT22;39156;51.176;6.738;2024-03-02T04:54:34;7.30;74.60
53268;DHT22;39156;51.176;6.738;2024-03-02T04:57:22;7.30;74.60
53268;DHT22;39156;51.176;6.738;2024-03-02T04:59:49;7.20;74.60
53268;DHT22;39156;51.176;6.738;2024-03-02T05:02:16;7.30;74.70
53268;DHT22;39156;51.176;6.738;2024-03-02T05:04:43;7.30;74.80
53268;DHT22;39156;51.176;6.738;2024-03-02T05:07:10;7.20;74.80
53268;DHT22;39156;51.176;6.738;2024-03-02T05:09:36;7.20;75.00
53268;DHT22;39156;51.176;6.738;2024-03-02T05:12:04;7.20;75.10
53268;DHT22;39156;51.176;6.738;2024-03-02T05:14:56;7.10;75.10
53268;DHT22;39156;51.176;6.738;2024-03-02T05:17:22;7.20;75.20
53268;DHT22;39156;51.176;6.738;2024-03-02T05:19:49;7.20;75.30
53268;DHT22;39156;51.176;6.738;2024-03-02T05:22:16;7.10;75.40
53268;DHT22;39156;51.176;6.738;2024-03-02T05:24:43;7.00;75.30
53268;DHT22;39156;51.176;6.738;2024-03-02T05:27:10;7.00;75.40
53268;DHT22;39156;51.176;6.738;2024-03-02T05:29:37;7.00;75.40
53268;DHT22;39156;51.176;6.738;2024-03-02T05:32:05;7.10;75.50
53268;DHT22;39156;51.176;6.738;2024-03-02T05:34:32;7.00;75.60
53268;DHT22;39156;51.176;6.738;2024-03-02T05:37:00;6.90;76.20
53268;DHT22;39156;51.176;6.738;2024-03-02T05:39:27;6.90;75.70
53268;DHT22;39156;51.176;6.738;2024-03-02T05:41:54;7.00;75.80
53268;DHT22;39156;51.176;6.738;2024-03-02T05:44:21;6.90;75.90
53268;DHT22;39156;51.176;6.738;2024-03-02T05:46:48;7.00;76.00
53268;DHT22;39156;51.176;6.738;2024-03-02T05:49:16;6.90;76.00
53268;DHT22;39156;51.176;6.738;2024-03-02T05:51:43;6.90;76.10
53268;DHT22;39156;51.176;6.738;2024-03-02T05:54:10;6.80;76.10
53268;DHT22;39156;51.176;6.738;2024-03-02T05:56:37;6.80;76.20
53268;DHT22;39156;51.176;6.738;2024-03-02T05:59:04;6.80;76.30
53268;DHT22;39156;51.176;6.738;2024-03-02T06:01:38;6.80;76.30
53268;DHT22;39156;51.176;6.738;2024-03-02T06:04:05;6.80;76.30
53268;DHT22;39156;51.176;6.738;2024-03-02T06:06:33;6.80;76.80
53268;DHT22;39156;51.176;6.738;2024-03-02T06:09:00;6.90;76.40
53268;DHT22;39156;51.176;6.738;2024-03-02T06:11:28;6.70;76.40
53268;DHT22;39156;51.176;6.738;2024-03-02T06:13:55;6.80;76.50
53268;DHT22;39156;51.176;6.738;2024-03-02T06:16:21;6.80;76.60
53268;DHT22;39156;51.176;6.738;2024-03-02T06:18:48;6.80;76.60
53268;DHT22;39156;51.176;6.738;2024-03-02T06:21:15;6.60;76.50
53268;DHT22;39156;51.176;6.738;2024-03-02T06:23:44;6.80;76.70
53268;DHT22;39156;51.176;6.738;2024-03-02T06:26:11;6.80;76.80
53268;DHT22;39156;51.176;6.738;2024-03-02T06:28:38;6.80;76.80
53268;DHT22;39156;51.176;6.738;2024-03-02T06:31:05;6.80;76.70
53268;DHT22;39156;51.176;6.738;2024-03-02T06:33:32;6.80;76.70
53268;DHT22;39156;51.176;6.738;2024-03-02T06:35:59;6.80;76.60
53268;DHT22;39156;51.176;6.738;2024-03-02T06:38:26;6.80;76.60
53268;DHT22;39156;51.176;6.738;2024-03-02T06:40:54;6.90;76.70
53268;DHT22;39156;51.176;6.738;2024-03-02T06:43:21;6.90;76.70
53268;DHT22;39156;51.176;6.738;2024-03-02T06:45:48;6.90;76.60
53268;DHT22;39156;51.176;6.738;2024-03-02T06:48:15;6.80;76.60
53268;DHT22;39156;51.176;6.738;2024-03-02T06:50:45;6.90;76.70
53268;DHT22;39156;51.176;6.738;2024-03-02T06:53:12;7.00;76.70
53268;DHT22;39156;51.176;6.738;2024-03-02T06:55:39;7.00;76.50
53268;DHT22;39156;51.176;6.738;2024-03-02T06:58:07;6.90;76.50
53268;DHT22;39156;51.176;6.738;2024-03-02T07:00:34;7.10;76.60
53268;DHT22;39156;51.176;6.738;2024-03-02T07:03:02;7.10;76.50
53268;DHT22;39156;51.176;6.738;2024-03-02T07:05:29;7.10;76.50
53268;DHT22;39156;51.176;6.738;2024-03-02T07:07:56;7.20;76.70
53268;DHT22;39156;51.176;6.738;2024-03-02T07:10:22;7.30;76.50
53268;DHT22;39156;51.176;6.738;2024-03-02T07:12:49;7.30;76.40
53268;DHT22;39156;51.176;6.738;2024-03-02T07:15:17;7.30;76.40
53268;DHT22;39156;51.176;6.738;2024-03-02T07:18:03;7.40;76.20
53268;DHT22;39156;51.176;6.738;2024-03-02T07:20:30;7.40;76.20
53268;DHT22;39156;51.176;6.738;2024-03-02T07:22:57;7.60;76.30
53268;DHT22;39156;51.176;6.738;2024-03-02T07:25:24;7.50;76.10
53268;DHT22;39156;51.176;6.738;2024-03-02T07:27:51;7.50;76.10
53268;DHT22;39156;51.176;6.738;2024-03-02T07:30:19;7.80;76.10
53268;DHT22;39156;51.176;6.738;2024-03-02T07:32:49;7.80;75.90
53268;DHT22;39156;51.176;6.738;2024-03-02T07:35:16;7.80;75.70
53268;DHT22;39156;51.176;6.738;2024-03-02T07:37:43;7.80;75.50
53268;DHT22;39156;51.176;6.738;2024-03-02T07:40:11;7.80;75.30
53268;DHT22;39156;51.176;6.738;2024-03-02T07:42:39;8.00;75.30
53268;DHT22;39156;51.176;6.738;2024-03-02T07:45:07;8.10;75.10
53268;DHT22;39156;51.176;6.738;2024-03-02T07:47:35;8.10;75.20
53268;DHT22;39156;51.176;6.738;2024-03-02T07:50:03;8.20;75.00
53268;DHT22;39156;51.176;6.738;2024-03-02T07:52:31;8.10;74.80
53268;DHT22;39156;51.176;6.738;2024-03-02T07:54:58;8.30;74.90
53268;DHT22;39156;51.176;6.738;2024-03-02T07:57:25;8.30;74.70
53268;DHT22;39156;51.176;6.738;2024-03-02T07:59:52;8.40;74.70
53268;DHT22;39156;51.176;6.738;2024-03-02T08:02:19;8.50;74.80
53268;DHT22;39156;51.176;6.738;2024-03-02T08:04:47;8.50;74.90
53268;DHT22;39156;51.176;6.738;2024-03-02T08:07:15;8.70;74.80
53268;DHT22;39156;51.176;6.738;2024-03-02T08:09:43;8.90;74.80
53268;DHT22;39156;51.176;6.738;2024-03-02T08:12:11;9.10;75.60
53268;DHT22;39156;51.176;6.738;2024-03-02T08:14:38;9.40;75.40
53268;DHT22;39156;51.176;6.738;2024-03-02T08:17:05;9.70;74.90
53268;DHT22;39156;51.176;6.738;2024-03-02T08:19:35;10.30;74.80
53268;DHT22;39156;51.176;6.738;2024-03-02T08:22:03;10.40;73.90
53268;DHT22;39156;51.176;6.738;2024-03-02T08:24:30;10.80;74.00
53268;DHT22;39156;51.176;6.738;2024-03-02T08:26:58;11.30;73.00
53268;DHT22;39156;51.176;6.738;2024-03-02T08:29:25;11.70;72.40
53268;DHT22;39156;51.176;6.738;2024-03-02T08:31:53;11.90;70.60
53268;DHT22;39156;51.176;6.738;2024-03-02T08:34:20;12.20;69.50
53268;DHT22;39156;51.176;6.738;2024-03-02T08:36:47;12.40;69.00
53268;DHT22;39156;51.176;6.738;2024-03-02T08:39:15;12.50;68.10
53268;DHT22;39156;51.176;6.738;2024-03-02T08:41:42;12.50;67.60
53268;DHT22;39156;51.176;6.738;2024-03-02T08:44:10;12.60;67.60
53268;DHT22;39156;51.176;6.738;2024-03-02T08:46:38;12.60;67.70
53268;DHT22;39156;51.176;6.738;2024-03-02T08:49:05;12.70;67.40
53268;DHT22;39156;51.176;6.738;2024-03-02T08:51:32;12.80;67.40
53268;DHT22;39156;51.176;6.738;2024-03-02T08:53:59;13.00;67.80
53268;DHT22;39156;51.176;6.738;2024-03-02T08:56:27;13.30;67.60
53268;DHT22;39156;51.176;6.738;2024-03-02T08:58:54;13.60;65.60
53268;DHT22;39156;51.176;6.738;2024-03-02T09:01:21;13.90;67.70
53268;DHT22;39156;51.176;6.738;2024-03-02T09:03:48;14.30;66.60
53268;DHT22;39156;51.176;6.738;2024-03-02T09:06:15;14.50;66.30
53268;DHT22;39156;51.176;6.738;2024-03-02T09:08:43;14.90;66.20
53268;DHT22;39156;51.176;6.738;2024-03-02T09:11:10;15.20;66.20
53268;DHT22;39156;51.176;6.738;2024-03-02T09:13:39;15.50;64.90
53268;DHT22;39156;51.176;6.738;2024-03-02T09:16:06;15.80;64.70
53268;DHT22;39156;51.176;6.738;2024-03-02T09:18:36;16.10;64.00
53268;DHT22;39156;51.176;6.738;2024-03-02T09:21:04;16.30;62.50
53268;DHT22;39156;51.176;6.738;2024-03-02T09:23:31;16.60;62.70
53268;DHT22;39156;51.176;6.738;2024-03-02T09:25:58;16.80;61.20
53268;DHT22;39156;51.176;6.738;2024-03-02T09:28:25;17.00;59.60
53268;DHT22;39156;51.176;6.738;2024-03-02T09:30:53;17.10;58.90
53268;DHT22;39156;51.176;6.738;2024-03-02T09:33:20;17.30;58.90
53268;DHT22;39156;51.176;6.738;2024-03-02T09:35:47;17.50;59.40
53268;DHT22;39156;51.176;6.738;2024-03-02T09:38:15;17.70;59.10
53268;DHT22;39156;51.176;6.738;2024-03-02T09:40:42;17.80;58.50
53268;DHT22;39156;51.176;6.738;2024-03-02T09:43:09;18.00;56.70
53268;DHT22;39156;51.176;6.738;2024-03-02T09:45:36;18.00;56.60
53268;DHT22;39156;51.176;6.738;2024-03-02T09:48:06;18.00;55.80
53268;DHT22;39156;51.176;6.738;2024-03-02T09:50:33;18.10;56.40
53268;DHT22;39156;51.176;6.738;2024-03-02T09:53:00;18.10;55.50
53268;DHT22;39156;51.176;6.738;2024-03-02T09:55:28;18.20;55.70
53268;DHT22;39156;51.176;6.738;2024-03-02T09:57:55;18.30;55.50
53268;DHT22;39156;51.176;6.738;2024-03-02T10:00:21;18.50;56.00
53268;DHT22;39156;51.176;6.738;2024-03-02T10:02:48;18.50;54.50
53268;DHT22;39156;51.176;6.738;2024-03-02T10:05:25;18.60;54.70
53268;DHT22;39156;51.176;6.738;2024-03-02T10:08:03;18.60;52.60
53268;DHT22;39156;51.176;6.738;2024-03-02T10:10:37;18.70;52.40
53268;DHT22;39156;51.176;6.738;2024-03-02T10:13:06;18.70;53.40
53268;DHT22;39156;51.176;6.738;2024-03-02T10:15:35;18.80;53.60
53268;DHT22;39156;51.176;6.738;2024-03-02T10:18:04;18.90;52.80
53268;DHT22;39156;51.176;6.738;2024-03-02T10:20:32;19.00;53.10
53268;DHT22;39156;51.176;6.738;2024-03-02T10:23:10;19.10;52.70
53268;DHT22;39156;51.176;6.738;2024-03-02T10:25:37;19.10;51.60
53268;DHT22;39156;51.176;6.738;2024-03-02T10:28:04;19.20;52.30
53268;DHT22;39156;51.176;6.738;2024-03-02T10:30:32;19.30;52.60
53268;DHT22;39156;51.176;6.738;2024-03-02T10:33:00;19.30;51.80
53268;DHT22;39156;51.176;6.738;2024-03-02T10:35:28;19.40;51.30
53268;DHT22;39156;51.176;6.738;2024-03-02T10:37:58;19.30;51.00
53268;DHT22;39156;51.176;6.738;2024-03-02T10:40:26;19.30;50.20
53268;DHT22;39156;51.176;6.738;2024-03-02T10:42:54;19.30;50.50
53268;DHT22;39156;51.176;6.738;2024-03-02T10:45:21;19.20;50.50
53268;DHT22;39156;51.176;6.738;2024-03-02T10:47:49;19.10;50.50
53268;DHT22;39156;51.176;6.738;2024-03-02T10:50:17;19.00;49.60
53268;DHT22;39156;51.176;6.738;2024-03-02T10:52:44;18.90;50.00
53268;DHT22;39156;51.176;6.738;2024-03-02T10:55:13;18.80;49.90
53268;DHT22;39156;51.176;6.738;2024-03-02T10:57:42;18.70;49.70
53268;DHT22;39156;51.176;6.738;2024-03-02T11:00:12;18.50;49.70
53268;DHT22;39156;51.176;6.738;2024-03-02T11:02:50;18.40;49.30
53268;DHT22;39156;51.176;6.738;2024-03-02T11:05:26;18.20;49.50
53268;DHT22;39156;51.176;6.738;2024-03-02T11:07:57;17.90;49.90
53268;DHT22;39156;51.176;6.738;2024-03-02T11:10:34;17.70;49.60
53268;DHT22;39156;51.176;6.738;2024-03-02T11:13:05;17.40;49.50
53268;DHT22;39156;51.176;6.738;2024-03-02T11:15:35;17.20;49.80
53268;DHT22;39156;51.176;6.738;2024-03-02T11:18:04;17.00;50.60
53268;DHT22;39156;51.176;6.738;2024-03-02T11:20:35;16.80;50.30
53268;DHT22;39156;51.176;6.738;2024-03-02T11:23:05;16.60;51.10
53268;DHT22;39156;51.176;6.738;2024-03-02T11:25:34;16.40;51.30
53268;DHT22;39156;51.176;6.738;2024-03-02T11:28:03;16.20;51.70
53268;DHT22;39156;51.176;6.738;2024-03-02T11:30:49;16.00;52.00
53268;DHT22;39156;51.176;6.738;2024-03-02T11:33:23;15.80;52.70
53268;DHT22;39156;51.176;6.738;2024-03-02T11:35:55;15.70;53.00
53268;DHT22;39156;51.176;6.738;2024-03-02T11:38:22;15.50;53.20
53268;DHT22;39156;51.176;6.738;2024-03-02T11:40:51;15.40;53.10
53268;DHT22;39156;51.176;6.738;2024-03-02T11:43:20;15.30;53.40
53268;DHT22;39156;51.176;6.738;2024-03-02T11:45:47;15.20;53.50
53268;DHT22;39156;51.176;6.738;2024-03-02T11:48:15;15.20;53.70
53268;DHT22;39156;51.176;6.738;2024-03-02T11:50:46;15.10;53.90
53268;DHT22;39156;51.176;6.738;2024-03-02T11:53:14;15.10;54.40
53268;DHT22;39156;51.176;6.738;2024-03-02T11:55:41;15.10;53.90
53268;DHT22;39156;51.176;6.738;2024-03-02T11:58:13;15.00;54.30
53268;DHT22;39156;51.176;6.738;2024-03-02T12:00:40;15.00;54.70
53268;DHT22;39156;51.176;6.738;2024-03-02T12:03:09;15.00;54.70
53268;DHT22;39156;51.176;6.738;2024-03-02T12:05:39;15.10;54.50
53268;DHT22;39156;51.176;6.738;2024-03-02T12:08:07;15.10;53.90
53268;DHT22;39156;51.176;6.738;2024-03-02T12:10:36;15.10;54.10
53268;DHT22;39156;51.176;6.738;2024-03-02T12:13:05;15.00;53.60
53268;DHT22;39156;51.176;6.738;2024-03-02T12:15:35;15.00;53.30
53268;DHT22;39156;51.176;6.738;2024-03-02T12:18:04;15.00;53.90
53268;DHT22;39156;51.176;6.738;2024-03-02T12:20:32;14.90;54.00
53268;DHT22;39156;51.176;6.738;2024-03-02T12:23:00;14.90;54.50
53268;DHT22;39156;51.176;6.738;2024-03-02T12:25:28;14.90;54.60
53268;DHT22;39156;51.176;6.738;2024-03-02T12:27:59;14.90;54.80
53268;DHT22;39156;51.176;6.738;2024-03-02T12:30:29;14.80;55.10
53268;DHT22;39156;51.176;6.738;2024-03-02T12:32:58;14.90;54.70
53268;DHT22;39156;51.176;6.738;2024-03-02T12:35:26;14.90;54.90
53268;DHT22;39156;51.176;6.738;2024-03-02T12:37:53;14.80;55.00
53268;DHT22;39156;51.176;6.738;2024-03-02T12:40:21;14.80;55.40
53268;DHT22;39156;51.176;6.738;2024-03-02T12:42:49;14.80;55.60
53268;DHT22;39156;51.176;6.738;2024-03-02T12:45:17;14.80;55.60
53268;DHT22;39156;51.176;6.738;2024-03-02T12:47:49;14.90;55.40
53268;DHT22;39156;51.176;6.738;2024-03-02T12:50:18;14.80;55.50
53268;DHT22;39156;51.176;6.738;2024-03-02T12:52:51;14.80;55.30
53268;DHT22;39156;51.176;6.738;2024-03-02T12:55:20;14.80;55.40
53268;DHT22;39156;51.176;6.738;2024-03-02T12:57:49;14.80;55.10
53268;DHT22;39156;51.176;6.738;2024-03-02T13:00:18;14.80;55.20
53268;DHT22;39156;51.176;6.738;2024-03-02T13:02:46;14.70;55.50
53268;DHT22;39156;51.176;6.738;2024-03-02T13:05:13;14.80;55.20
53268;DHT22;39156;51.176;6.738;2024-03-02T13:07:41;14.70;55.00
53268;DHT22;39156;51.176;6.738;2024-03-02T13:10:10;14.70;55.30
53268;DHT22;39156;51.176;6.738;2024-03-02T13:12:37;14.80;55.50
53268;DHT22;39156;51.176;6.738;2024-03-02T13:15:04;14.60;55.60
53268;DHT22;39156;51.176;6.738;2024-03-02T13:17:34;14.60;56.10
53268;DHT22;39156;51.176;6.738;2024-03-02T13:20:03;14.40;56.20
53268;DHT22;39156;51.176;6.738;2024-03-02T13:22:33;14.40;56.30
53268;DHT22;39156;51.176;6.738;2024-03-02T13:25:01;14.40;56.10
53268;DHT22;39156;51.176;6.738;2024-03-02T13:27:29;14.30;56.10
53268;DHT22;39156;51.176;6.738;2024-03-02T13:29:57;14.30;56.30
53268;DHT22;39156;51.176;6.738;2024-03-02T13:32:24;14.30;56.50
53268;DHT22;39156;51.176;6.738;2024-03-02T13:34:51;14.30;56.30
53268;DHT22;39156;51.176;6.738;2024-03-02T13:37:18;14.20;57.10
53268;DHT22;39156;51.176;6.738;2024-03-02T13:39:46;14.30;56.70
53268;DHT22;39156;51.176;6.738;2024-03-02T13:42:14;14.30;56.40
53268;DHT22;39156;51.176;6.738;2024-03-02T13:44:41;14.20;56.20
53268;DHT22;39156;51.176;6.738;2024-03-02T13:47:11;14.20;56.30
53268;DHT22;39156;51.176;6.738;2024-03-02T13:49:38;14.20;56.60
53268;DHT22;39156;51.176;6.738;2024-03-02T13:52:09;14.20;56.50
53268;DHT22;39156;51.176;6.738;2024-03-02T13:54:38;14.20;56.50
53268;DHT22;39156;51.176;6.738;2024-03-02T13:57:05;14.20;56.60
53268;DHT22;39156;51.176;6.738;2024-03-02T13:59:34;14.20;56.70
53268;DHT22;39156;51.176;6.738;2024-03-02T14:02:01;14.20;57.40
53268;DHT22;39156;51.176;6.738;2024-03-02T14:04:29;14.20;57.30
53268;DHT22;39156;51.176;6.738;2024-03-02T14:06:57;14.30;57.50
53268;DHT22;39156;51.176;6.738;2024-03-02T14:09:24;14.20;57.20
53268;DHT22;39156;51.176;6.738;2024-03-02T14:11:51;14.30;56.90
53268;DHT22;39156;51.176;6.738;2024-03-02T14:14:18;14.20;56.90
53268;DHT22;39156;51.176;6.738;2024-03-02T14:16:46;14.30;57.00
53268;DHT22;39156;51.176;6.738;2024-03-02T14:19:13;14.30;57.40
53268;DHT22;39156;51.176;6.738;2024-03-02T14:21:40;14.20;57.40
53268;DHT22;39156;51.176;6.738;2024-03-02T14:24:07;14.20;57.60
53268;DHT22;39156;51.176;6.738;2024-03-02T14:26:35;14.30;58.10
53268;DHT22;39156;51.176;6.738;2024-03-02T14:29:02;14.30;57.50
53268;DHT22;39156;51.176;6.738;2024-03-02T14:31:29;14.30;57.20
53268;DHT22;39156;51.176;6.738;2024-03-02T14:33:57;14.30;56.90
53268;DHT22;39156;51.176;6.738;2024-03-02T14:36:25;14.40;56.90
53268;DHT22;39156;51.176;6.738;2024-03-02T14:38:53;14.30;56.80
53268;DHT22;39156;51.176;6.738;2024-03-02T14:41:20;14.20;57.00
53268;DHT22;39156;51.176;6.738;2024-03-02T14:43:46;14.30;57.20
53268;DHT22;39156;51.176;6.738;2024-03-02T14:46:14;14.30;57.20
53268;DHT22;39156;51.176;6.738;2024-03-02T14:48:44;14.30;57.30
53268;DHT22;39156;51.176;6.738;2024-03-02T14:51:13;14.30;57.00
53268;DHT22;39156;51.176;6.738;2024-03-02T14:53:40;14.30;57.20
53268;DHT22;39156;51.176;6.738;2024-03-02T14:56:07;14.40;57.10
53268;DHT22;39156;51.176;6.738;2024-03-02T14:58:35;14.30;57.20
53268;DHT22;39156;51.176;6.738;2024-03-02T15:01:03;14.30;57.00
53268;DHT22;39156;51.176;6.738;2024-03-02T15:03:31;14.40;56.50
53268;DHT22;39156;51.176;6.738;2024-03-02T15:05:58;14.30;56.80
53268;DHT22;39156;51.176;6.738;2024-03-02T15:08:26;14.40;56.90
53268;DHT22;39156;51.176;6.738;2024-03-02T15:10:53;14.40;56.80
53268;DHT22;39156;51.176;6.738;2024-03-02T15:13:22;14.50;56.80
53268;DHT22;39156;51.176;6.738;2024-03-02T15:15:50;14.50;56.70
53268;DHT22;39156;51.176;6.738;2024-03-02T15:18:18;14.50;56.80
53268;DHT22;39156;51.176;6.738;2024-03-02T15:20:44;14.50;56.70
53268;DHT22;39156;51.176;6.738;2024-03-02T15:23:11;14.50;56.80
53268;DHT22;39156;51.176;6.738;2024-03-02T15:25:39;14.60;56.30
53268;DHT22;39156;51.176;6.738;2024-03-02T15:28:06;14.60;56.00
53268;DHT22;39156;51.176;6.738;2024-03-02T15:30:33;14.40;56.10
53268;DHT22;39156;51.176;6.738;2024-03-02T15:33:00;14.50;56.20
53268;DHT22;39156;51.176;6.738;2024-03-02T15:35:27;14.40;56.20
53268;DHT22;39156;51.176;6.738;2024-03-02T15:37:54;14.40;56.00
53268;DHT22;39156;51.176;6.738;2024-03-02T15:40:20;14.40;56.10
53268;DHT22;39156;51.176;6.738;2024-03-02T15:42:48;14.50;56.20
53268;DHT22;39156;51.176;6.738;2024-03-02T15:45:15;14.40;56.30